createdAt,value
2019-01-18T00:01:18.011Z,2.10
2019-01-18T00:03:47.267Z,2.20
2019-01-18T00:06:16.494Z,2.20
2019-01-18T00:08:45.742Z,2.30
2019-01-18T00:11:14.968Z,2.20
2019-01-18T00:13:44.209Z,2.20
2019-01-18T00:16:13.538Z,2.10
2019-01-18T00:18:42.717Z,2.00
2019-01-18T00:21:11.939Z,2.00
2019-01-18T00:23:41.118Z,2.00
2019-01-18T00:26:10.351Z,2.10
2019-01-18T00:28:39.618Z,2.10
2019-01-18T00:31:08.915Z,2.10
2019-01-18T00:33:38.101Z,2.10
2019-01-18T00:36:07.327Z,2.20
2019-01-18T00:38:36.577Z,2.10
2019-01-18T00:41:05.831Z,2.20
2019-01-18T00:43:35.087Z,2.20
2019-01-18T00:46:04.414Z,2.10
2019-01-18T00:48:33.671Z,2.10
2019-01-18T00:51:02.899Z,2.00
2019-01-18T00:53:32.090Z,2.10
2019-01-18T00:56:01.318Z,2.10
2019-01-18T00:58:30.547Z,2.20
2019-01-18T01:00:59.797Z,2.20
2019-01-18T01:03:29.055Z,2.20
2019-01-18T01:05:58.255Z,2.20
2019-01-18T01:08:27.482Z,2.30
2019-01-18T01:10:56.727Z,2.20
2019-01-18T01:13:25.971Z,2.20
2019-01-18T01:15:55.210Z,2.20
2019-01-18T01:18:24.460Z,2.20
2019-01-18T01:20:53.715Z,2.20
2019-01-18T01:23:22.944Z,2.20
2019-01-18T01:25:52.114Z,2.10
2019-01-18T01:28:21.337Z,2.10
2019-01-18T01:30:50.517Z,2.00
2019-01-18T01:33:19.741Z,2.00
2019-01-18T01:35:48.998Z,2.00
2019-01-18T01:38:18.155Z,2.00
2019-01-18T01:40:47.354Z,2.00
2019-01-18T01:43:16.502Z,2.00
2019-01-18T01:45:45.707Z,2.00
2019-01-18T01:48:14.931Z,2.10
2019-01-18T01:50:44.186Z,2.10
2019-01-18T01:53:13.414Z,2.10
2019-01-18T01:55:42.567Z,2.10
2019-01-18T01:58:11.876Z,2.00
2019-01-18T02:00:41.541Z,2.00
2019-01-18T02:03:10.732Z,1.90
2019-01-18T02:05:39.867Z,1.90
2019-01-18T02:08:09.044Z,1.90
2019-01-18T02:10:38.333Z,1.90
2019-01-18T02:13:07.585Z,2.00
2019-01-18T02:15:36.823Z,2.00
2019-01-18T02:18:06.277Z,2.00
2019-01-18T02:20:35.651Z,2.00
2019-01-18T02:23:04.907Z,1.80
2019-01-18T02:25:34.143Z,1.70
2019-01-18T02:28:03.424Z,1.60
2019-01-18T02:30:32.647Z,1.50
2019-01-18T02:33:01.898Z,1.40
2019-01-18T02:35:31.123Z,1.40
2019-01-18T02:38:00.449Z,1.30
2019-01-18T02:40:29.739Z,1.20
2019-01-18T02:42:59.024Z,1.20
2019-01-18T02:45:28.278Z,1.10
2019-01-18T02:47:57.535Z,1.10
2019-01-18T02:50:26.712Z,1.10
2019-01-18T02:52:55.944Z,1.00
2019-01-18T02:55:29.041Z,0.90
2019-01-18T02:57:56.725Z,0.90
2019-01-18T03:00:25.977Z,0.90
2019-01-18T03:02:55.269Z,0.80
2019-01-18T03:05:26.877Z,0.80
2019-01-18T03:07:56.170Z,0.80
2019-01-18T03:10:28.045Z,0.70
2019-01-18T03:12:57.635Z,0.70
2019-01-18T03:15:28.730Z,0.70
2019-01-18T03:17:57.877Z,0.60
2019-01-18T03:20:27.150Z,0.60
2019-01-18T03:22:56.362Z,0.70
2019-01-18T03:25:27.777Z,0.70
2019-01-18T03:27:57.028Z,0.80
2019-01-18T03:30:26.279Z,0.90
2019-01-18T03:32:55.434Z,1.00
2019-01-18T03:35:25.124Z,1.10
2019-01-18T03:37:54.351Z,1.10
2019-01-18T03:40:23.669Z,1.10
2019-01-18T03:42:53.135Z,1.10
2019-01-18T03:45:22.376Z,1.10
2019-01-18T03:47:51.768Z,1.10
2019-01-18T03:50:23.075Z,1.10
2019-01-18T03:52:52.339Z,1.10
2019-01-18T03:55:21.957Z,1.20
2019-01-18T03:57:51.302Z,1.30
2019-01-18T04:00:28.888Z,1.30
2019-01-18T04:02:58.192Z,1.30
2019-01-18T04:05:27.761Z,1.40
2019-01-18T04:07:56.990Z,1.40
2019-01-18T04:10:26.240Z,1.40
2019-01-18T04:12:55.842Z,1.40
2019-01-18T04:15:25.409Z,1.40
2019-01-18T04:17:54.655Z,1.50
2019-01-18T04:20:24.195Z,1.50
2019-01-18T04:22:53.421Z,1.50
2019-01-18T04:25:26.255Z,1.50
2019-01-18T04:27:55.488Z,1.40
2019-01-18T04:30:24.765Z,1.40
2019-01-18T04:32:53.992Z,1.40
2019-01-18T04:35:23.238Z,1.40
2019-01-18T04:37:52.466Z,1.40
2019-01-18T04:40:23.684Z,1.50
2019-01-18T04:42:52.937Z,1.40
2019-01-18T04:45:22.601Z,1.40
2019-01-18T04:47:51.844Z,1.30
2019-01-18T04:50:22.944Z,1.30
2019-01-18T04:52:52.103Z,1.10
2019-01-18T04:55:21.346Z,1.00
2019-01-18T04:57:50.979Z,0.90
2019-01-18T05:00:22.261Z,0.80
2019-01-18T05:02:51.527Z,0.80
2019-01-18T05:05:21.339Z,0.70
2019-01-18T05:07:50.820Z,0.70
2019-01-18T05:10:21.079Z,0.60
2019-01-18T05:12:50.255Z,0.60
2019-01-18T05:15:21.826Z,0.50
2019-01-18T05:17:51.328Z,0.50
2019-01-18T05:20:20.587Z,0.40
2019-01-18T05:22:49.869Z,0.40
2019-01-18T05:25:19.165Z,0.40
2019-01-18T05:27:48.410Z,0.30
2019-01-18T05:30:20.286Z,0.20
2019-01-18T05:32:49.458Z,0.20
2019-01-18T05:35:18.821Z,0.10
2019-01-18T05:37:48.070Z,0.00
2019-01-18T05:40:18.435Z,0.00
2019-01-18T05:42:47.851Z,-0.10
2019-01-18T05:45:19.091Z,-0.10
2019-01-18T05:47:48.372Z,-0.10
2019-01-18T05:50:20.247Z,-0.10
2019-01-18T05:52:49.428Z,-0.20
2019-01-18T05:55:18.801Z,-0.30
2019-01-18T05:57:48.120Z,-0.40
2019-01-18T06:00:32.352Z,-0.40
2019-01-18T06:03:01.575Z,-0.40
2019-01-18T06:05:31.755Z,-0.40
2019-01-18T06:08:01.076Z,-0.50
2019-01-18T06:10:30.310Z,-0.50
2019-01-18T06:12:59.568Z,-0.50
2019-01-18T06:15:28.727Z,-0.60
2019-01-18T06:17:57.939Z,-0.60
2019-01-18T06:20:27.246Z,-0.60
2019-01-18T06:22:56.421Z,-0.70
2019-01-18T06:25:25.655Z,-0.70
2019-01-18T06:27:54.947Z,-0.80
2019-01-18T06:30:24.240Z,-0.80
2019-01-18T06:32:53.413Z,-0.90
2019-01-18T06:35:22.644Z,-0.90
2019-01-18T06:37:51.902Z,-0.90
2019-01-18T06:40:21.267Z,-0.90
2019-01-18T06:42:50.552Z,-1.00
2019-01-18T06:45:20.586Z,-1.00
2019-01-18T06:47:49.768Z,-1.10
2019-01-18T06:50:20.177Z,-1.10
2019-01-18T06:52:49.341Z,-1.20
2019-01-18T06:55:18.573Z,-1.20
2019-01-18T06:57:47.850Z,-1.30
2019-01-18T07:00:25.854Z,-1.20
2019-01-18T07:02:55.221Z,-1.30
2019-01-18T07:05:24.555Z,-1.30
2019-01-18T07:07:53.740Z,-1.40
2019-01-18T07:10:23.547Z,-1.40
2019-01-18T07:12:52.742Z,-1.40
2019-01-18T07:15:22.543Z,-1.40
2019-01-18T07:17:51.807Z,-1.50
2019-01-18T07:20:21.523Z,-1.50
2019-01-18T07:22:50.859Z,-1.50
2019-01-18T07:25:27.995Z,-1.50
2019-01-18T07:27:57.176Z,-1.40
2019-01-18T07:30:38.016Z,-1.50
2019-01-18T07:33:09.663Z,-1.50
2019-01-18T07:35:38.927Z,-1.50
2019-01-18T07:38:08.186Z,-1.50
2019-01-18T07:40:37.371Z,-1.60
2019-01-18T07:43:06.613Z,-1.60
2019-01-18T07:45:36.149Z,-1.60
2019-01-18T07:48:05.743Z,-1.60
2019-01-18T07:50:35.041Z,-1.60
2019-01-18T07:53:04.671Z,-1.70
2019-01-18T07:55:33.880Z,-1.70
2019-01-18T07:58:03.192Z,-1.60
2019-01-18T08:00:32.444Z,-1.60
2019-01-18T08:03:01.623Z,-1.60
2019-01-18T08:05:32.369Z,-1.50
2019-01-18T08:08:03.190Z,-1.50
2019-01-18T08:10:32.495Z,-1.50
2019-01-18T08:13:01.739Z,-1.50
2019-01-18T08:15:31.440Z,-1.50
2019-01-18T08:18:00.669Z,-1.50
2019-01-18T08:20:31.542Z,-1.50
2019-01-18T08:23:01.759Z,-1.50
2019-01-18T08:25:31.015Z,-1.50
2019-01-18T08:28:00.562Z,-1.40
2019-01-18T08:30:30.775Z,-1.40
2019-01-18T08:33:00.018Z,-1.30
2019-01-18T08:35:30.331Z,-1.30
2019-01-18T08:37:59.495Z,-1.20
2019-01-18T08:40:31.154Z,-1.20
2019-01-18T08:43:00.417Z,-1.10
2019-01-18T08:45:35.823Z,-1.10
2019-01-18T08:48:06.047Z,-1.00
2019-01-18T08:50:35.319Z,-1.00
2019-01-18T08:53:04.779Z,-0.90
2019-01-18T08:55:34.051Z,-0.90
2019-01-18T08:58:03.299Z,-0.80
2019-01-18T09:00:32.726Z,-0.70
2019-01-18T09:03:01.879Z,-0.80
2019-01-18T09:05:31.179Z,-0.70
2019-01-18T09:08:00.328Z,-0.70
2019-01-18T09:10:30.119Z,-0.60
2019-01-18T09:12:59.265Z,-0.60
2019-01-18T09:15:28.463Z,-0.50
2019-01-18T09:17:57.711Z,-0.40
2019-01-18T09:20:28.339Z,-0.40
2019-01-18T09:22:57.613Z,-0.30
2019-01-18T09:25:28.209Z,-0.30
2019-01-18T09:27:57.524Z,-0.20
2019-01-18T09:30:30.683Z,-0.10
2019-01-18T09:32:59.918Z,-0.10
2019-01-18T09:35:29.174Z,0.00
2019-01-18T09:37:59.469Z,0.00
2019-01-18T09:40:30.539Z,0.10
2019-01-18T09:42:59.741Z,0.20
2019-01-18T09:45:29.163Z,0.20
2019-01-18T09:47:58.413Z,0.20
2019-01-18T09:50:29.639Z,0.30
2019-01-18T09:52:59.589Z,0.30
2019-01-18T09:55:28.819Z,0.30
2019-01-18T09:57:59.879Z,0.30
2019-01-18T10:00:31.550Z,0.40
2019-01-18T10:03:01.609Z,0.40
2019-01-18T10:05:31.993Z,0.40
2019-01-18T10:08:01.909Z,0.50
2019-01-18T10:10:31.320Z,0.40
2019-01-18T10:13:01.327Z,0.40
2019-01-18T10:15:47.136Z,0.40
2019-01-18T10:18:16.726Z,0.50
2019-01-18T10:20:45.962Z,0.60
2019-01-18T10:23:15.219Z,0.60
2019-01-18T10:25:44.490Z,0.70
2019-01-18T10:28:13.742Z,0.60
2019-01-18T10:30:44.331Z,0.70
2019-01-18T10:33:13.659Z,0.80
2019-01-18T10:35:42.986Z,0.80
2019-01-18T10:38:12.240Z,0.80
2019-01-18T10:40:41.466Z,0.80
2019-01-18T10:43:10.796Z,0.90
2019-01-18T10:45:39.954Z,0.90
2019-01-18T10:48:09.205Z,1.00
2019-01-18T10:50:38.427Z,1.00
2019-01-18T10:53:07.741Z,1.10
2019-01-18T10:55:36.966Z,1.10
2019-01-18T10:58:06.381Z,1.20
2019-01-18T11:00:36.934Z,1.20
2019-01-18T11:03:06.527Z,1.20
2019-01-18T11:05:35.774Z,1.30
2019-01-18T11:08:05.192Z,1.30
2019-01-18T11:10:34.674Z,1.40
2019-01-18T11:13:04.030Z,1.40
2019-01-18T11:15:36.006Z,1.40
2019-01-18T11:18:04.535Z,1.50
2019-01-18T11:20:40.066Z,1.50
2019-01-18T11:23:09.368Z,1.50
2019-01-18T11:25:38.533Z,1.60
2019-01-18T11:28:07.772Z,1.60
2019-01-18T11:30:37.102Z,1.60
2019-01-18T11:33:06.431Z,1.70
2019-01-18T11:35:35.654Z,1.70
2019-01-18T11:38:05.279Z,1.70
2019-01-18T11:40:34.842Z,1.70
2019-01-18T11:43:04.367Z,1.80
2019-01-18T11:45:33.613Z,1.80
2019-01-18T11:48:02.763Z,1.80
2019-01-18T11:50:31.959Z,1.80
2019-01-18T11:53:01.162Z,1.80
2019-01-18T11:55:30.425Z,1.90
2019-01-18T11:57:59.572Z,1.90
2019-01-18T12:00:29.108Z,1.90
2019-01-18T12:02:58.279Z,1.90
2019-01-18T12:05:27.531Z,1.90
2019-01-18T12:07:56.842Z,2.00
2019-01-18T12:10:28.128Z,2.00
2019-01-18T12:12:57.378Z,2.00
2019-01-18T12:15:26.931Z,2.10
2019-01-18T12:17:56.070Z,2.10
2019-01-18T12:20:28.002Z,2.10
2019-01-18T12:22:58.247Z,2.10
2019-01-18T12:25:27.498Z,2.10
2019-01-18T12:27:56.806Z,2.10
2019-01-18T12:30:28.676Z,2.10
2019-01-18T12:32:57.900Z,2.10
2019-01-18T12:35:27.249Z,2.20
2019-01-18T12:37:56.467Z,2.20
2019-01-18T12:40:25.723Z,2.20
2019-01-18T12:42:55.203Z,2.30
2019-01-18T12:45:25.442Z,2.30
2019-01-18T12:47:54.683Z,2.30
2019-01-18T12:50:35.587Z,2.30
2019-01-18T12:53:05.052Z,2.30
2019-01-18T12:55:34.439Z,2.30
2019-01-18T12:58:03.681Z,2.40
2019-01-18T13:00:33.135Z,2.40
2019-01-18T13:03:02.493Z,2.40
2019-01-18T13:05:41.458Z,2.40
2019-01-18T13:08:10.686Z,2.40
2019-01-18T13:10:39.954Z,2.30
2019-01-18T13:13:09.448Z,2.40
2019-01-18T13:15:42.787Z,2.40
2019-01-18T13:18:12.111Z,2.40
2019-01-18T13:20:41.362Z,2.30
2019-01-18T13:23:10.586Z,2.30
2019-01-18T13:25:39.842Z,2.30
2019-01-18T13:28:09.135Z,2.30
2019-01-18T13:30:38.343Z,2.30
2019-01-18T13:33:07.572Z,2.30
2019-01-18T13:35:36.818Z,2.30
2019-01-18T13:38:06.144Z,2.30
2019-01-18T13:40:35.411Z,2.20
2019-01-18T13:43:04.779Z,2.20
2019-01-18T13:45:33.963Z,2.20
2019-01-18T13:48:03.187Z,2.20
2019-01-18T13:50:32.440Z,2.20
2019-01-18T13:53:01.691Z,2.10
2019-01-18T13:55:30.922Z,2.10
2019-01-18T13:58:00.081Z,2.10
2019-01-18T14:00:29.379Z,2.00
2019-01-18T14:02:58.627Z,2.00
2019-01-18T14:05:27.776Z,2.00
2019-01-18T14:07:57.036Z,2.00
2019-01-18T14:10:27.946Z,2.00
2019-01-18T14:12:57.198Z,2.00
2019-01-18T14:15:26.511Z,2.00
2019-01-18T14:17:55.767Z,2.00
2019-01-18T14:20:25.231Z,1.90
2019-01-18T14:22:54.491Z,1.90
2019-01-18T14:25:23.719Z,1.90
2019-01-18T14:27:53.124Z,1.90
2019-01-18T14:30:26.142Z,1.80
2019-01-18T14:32:56.090Z,1.80
2019-01-18T14:35:25.635Z,1.80
2019-01-18T14:37:54.987Z,1.70
2019-01-18T14:40:24.139Z,1.70
2019-01-18T14:42:53.432Z,1.70
2019-01-18T14:45:31.827Z,1.70
2019-01-18T14:48:01.007Z,1.70
2019-01-18T14:50:31.741Z,1.60
2019-01-18T14:53:01.056Z,1.60
2019-01-18T14:55:30.281Z,1.60
2019-01-18T14:57:59.591Z,1.50
2019-01-18T15:00:32.711Z,1.50
2019-01-18T15:03:02.681Z,1.50
2019-01-18T15:05:32.375Z,1.40
2019-01-18T15:08:01.622Z,1.40
2019-01-18T15:10:30.780Z,1.30
2019-01-18T15:13:08.695Z,1.30
2019-01-18T15:15:37.850Z,1.20
2019-01-18T15:18:07.174Z,1.20
2019-01-18T15:20:36.604Z,1.10
2019-01-18T15:23:07.083Z,1.10
2019-01-18T15:25:36.423Z,1.00
2019-01-18T15:28:05.754Z,1.00
2019-01-18T15:30:35.223Z,1.00
2019-01-18T15:33:09.151Z,0.90
2019-01-18T15:35:37.643Z,0.80
2019-01-18T15:38:08.946Z,0.80
2019-01-18T15:40:41.363Z,0.70
2019-01-18T15:43:11.486Z,0.70
2019-01-18T15:45:40.747Z,0.60
2019-01-18T15:48:11.133Z,0.50
2019-01-18T15:50:40.864Z,0.50
2019-01-18T15:53:10.307Z,0.40
2019-01-18T15:55:39.672Z,0.40
2019-01-18T15:58:09.961Z,0.40
2019-01-18T16:00:41.863Z,0.30
2019-01-18T16:03:15.917Z,0.20
2019-01-18T16:05:42.400Z,0.30
2019-01-18T16:08:12.833Z,0.20
2019-01-18T16:10:42.483Z,0.20
2019-01-18T16:13:12.935Z,0.20
2019-01-18T16:16:18.819Z,0.10
2019-01-18T16:18:47.975Z,0.10
2019-01-18T16:21:17.262Z,0.00
2019-01-18T16:23:46.492Z,0.00
2019-01-18T16:26:15.809Z,0.00
2019-01-18T16:28:45.106Z,-0.10
2019-01-18T16:31:14.371Z,-0.20
2019-01-18T16:33:43.715Z,-0.20
2019-01-18T16:36:12.986Z,-0.20
2019-01-18T16:38:42.205Z,-0.30
2019-01-18T16:41:11.480Z,-0.30
2019-01-18T16:43:43.879Z,-0.30
2019-01-18T16:46:13.059Z,-0.30
2019-01-18T16:48:42.387Z,-0.40
2019-01-18T16:51:11.568Z,-0.40
2019-01-18T16:53:41.205Z,-0.50
2019-01-18T16:56:10.463Z,-0.50
2019-01-18T16:58:39.627Z,-0.50
2019-01-18T17:01:10.219Z,-0.60
2019-01-18T17:03:39.448Z,-0.60
2019-01-18T17:06:08.758Z,-0.70
2019-01-18T17:08:37.915Z,-0.70
2019-01-18T17:11:07.295Z,-0.70
2019-01-18T17:13:38.540Z,-0.80
2019-01-18T17:16:08.168Z,-0.80
2019-01-18T17:18:37.515Z,-0.90
2019-01-18T17:21:06.809Z,-0.90
2019-01-18T17:23:36.091Z,-0.90
2019-01-18T17:26:07.005Z,-1.00
2019-01-18T17:28:36.246Z,-1.00
2019-01-18T17:31:05.432Z,-1.10
2019-01-18T17:33:37.032Z,-1.10
2019-01-18T17:36:16.678Z,-1.10
2019-01-18T17:39:31.228Z,-1.20
2019-01-18T17:42:52.706Z,-1.20
2019-01-18T17:46:02.179Z,-1.20
2019-01-18T17:49:09.591Z,-1.30
2019-01-18T17:52:11.863Z,-1.40
2019-01-18T17:54:58.153Z,-1.40
2019-01-18T17:58:04.396Z,-1.50
2019-01-18T18:01:04.208Z,-1.50
2019-01-18T18:04:09.348Z,-1.50
2019-01-18T18:07:34.964Z,-1.60
2019-01-18T18:10:44.390Z,-1.60
2019-01-18T18:13:48.824Z,-1.60
2019-01-18T18:16:55.115Z,-1.70
2019-01-18T18:20:20.764Z,-1.70
2019-01-18T18:23:32.815Z,-1.80
2019-01-18T18:26:11.431Z,-1.80
2019-01-18T18:29:20.428Z,-1.80
2019-01-18T18:32:29.359Z,-1.80
2019-01-18T18:35:28.718Z,-1.90
2019-01-18T18:38:12.399Z,-1.90
2019-01-18T18:41:29.046Z,-2.00
2019-01-18T18:44:50.246Z,-2.00
2019-01-18T18:48:05.904Z,-2.10
2019-01-18T18:51:34.684Z,-2.10
2019-01-18T18:54:48.027Z,-2.20
2019-01-18T18:58:05.409Z,-2.20
2019-01-18T19:01:00.399Z,-2.30
2019-01-18T19:03:57.398Z,-2.30
2019-01-18T19:06:53.506Z,-2.30
2019-01-18T19:10:06.782Z,-2.30
2019-01-18T19:13:22.914Z,-2.30
2019-01-18T19:16:27.419Z,-2.40
2019-01-18T19:19:32.451Z,-2.40
2019-01-18T19:23:10.119Z,-2.40
2019-01-18T19:26:29.873Z,-2.40
2019-01-18T19:29:26.606Z,-2.50
2019-01-18T19:32:42.801Z,-2.50
2019-01-18T19:35:48.932Z,-2.50
2019-01-18T19:39:08.896Z,-2.50
2019-01-18T19:42:09.531Z,-2.50
2019-01-18T19:45:23.136Z,-2.60
2019-01-18T19:48:15.351Z,-2.60
2019-01-18T19:51:03.112Z,-2.70
2019-01-18T19:54:25.482Z,-2.70
2019-01-18T19:57:29.805Z,-2.70
2019-01-18T20:00:45.546Z,-2.80
2019-01-18T20:03:48.776Z,-2.70
2019-01-18T20:06:58.827Z,-2.70
2019-01-18T20:10:08.651Z,-2.70
2019-01-18T20:13:28.019Z,-2.70
2019-01-18T20:16:29.808Z,-2.70
2019-01-18T20:19:54.886Z,-2.70
2019-01-18T20:22:53.143Z,-2.80
2019-01-18T20:25:31.693Z,-2.80
2019-01-18T20:28:33.101Z,-2.80
2019-01-18T20:31:30.598Z,-2.80
2019-01-18T20:34:31.649Z,-2.80
2019-01-18T20:37:23.163Z,-2.80
2019-01-18T20:40:21.850Z,-2.80
2019-01-18T20:43:38.314Z,-2.90
2019-01-18T20:46:59.747Z,-2.90
2019-01-18T20:50:05.856Z,-2.90
2019-01-18T20:53:01.550Z,-2.90
2019-01-18T20:56:07.659Z,-3.00
2019-01-18T20:59:08.694Z,-3.00
2019-01-18T21:02:02.626Z,-3.00
2019-01-18T21:05:08.603Z,-3.00
2019-01-18T21:08:27.711Z,-2.90
2019-01-18T21:11:19.891Z,-2.90
2019-01-18T21:13:59.336Z,-3.00
2019-01-18T21:16:58.948Z,-2.90
2019-01-18T21:19:54.229Z,-2.90
2019-01-18T21:22:54.723Z,-2.90
2019-01-18T21:25:44.766Z,-2.90
2019-01-18T21:28:41.881Z,-2.80
2019-01-18T21:31:58.290Z,-2.80
2019-01-18T21:34:58.854Z,-2.80
2019-01-18T21:38:11.051Z,-2.80
2019-01-18T21:41:03.275Z,-2.80
2019-01-18T21:44:10.308Z,-2.80
2019-01-18T21:47:29.572Z,-2.80
2019-01-18T21:50:49.338Z,-2.80
2019-01-18T21:53:30.739Z,-2.80
2019-01-18T21:57:02.398Z,-2.80
2019-01-18T22:00:46.491Z,-2.80
2019-01-18T22:03:45.871Z,-2.80
2019-01-18T22:06:47.101Z,-2.80
2019-01-18T22:10:13.143Z,-2.70
2019-01-18T22:13:28.993Z,-2.70
2019-01-18T22:16:54.327Z,-2.60
2019-01-18T22:20:16.542Z,-2.60
2019-01-18T22:23:14.179Z,-2.60
2019-01-18T22:26:21.599Z,-2.70
2019-01-18T22:29:45.809Z,-2.60
2019-01-18T22:32:52.895Z,-2.60
2019-01-18T22:36:04.580Z,-2.60
2019-01-18T22:39:48.415Z,-2.70
2019-01-18T22:42:27.202Z,-2.60
2019-01-18T22:45:40.052Z,-2.70
2019-01-18T22:48:54.108Z,-2.70
2019-01-18T22:52:00.231Z,-2.70
2019-01-18T22:55:07.787Z,-2.60
2019-01-18T22:58:31.155Z,-2.60
2019-01-18T23:01:49.043Z,-2.70
2019-01-18T23:05:01.782Z,-2.70
2019-01-18T23:08:04.459Z,-2.70
2019-01-18T23:11:14.417Z,-2.70
2019-01-18T23:14:32.655Z,-2.80
2019-01-18T23:17:18.343Z,-2.70
2019-01-18T23:20:17.396Z,-2.70
2019-01-18T23:23:14.222Z,-2.80
2019-01-18T23:26:35.829Z,-2.80
2019-01-18T23:29:13.579Z,-2.80
2019-01-18T23:31:54.684Z,-2.90
2019-01-18T23:35:04.733Z,-2.90
2019-01-18T23:37:59.764Z,-2.90
2019-01-18T23:41:01.281Z,-3.00
2019-01-18T23:44:33.132Z,-3.00
2019-01-18T23:47:42.567Z,-2.90
2019-01-18T23:50:22.443Z,-2.90
2019-01-18T23:53:17.554Z,-2.90
2019-01-18T23:56:14.674Z,-2.90
2019-01-18T23:59:23.205Z,-2.90
